sensor_id;sensor_type;location;lat;lon;timestamp;pressure;altitude;pressure_sealevel;temperature;humidity
57000;BME280;42891;50.006;21.964;2023-05-03T00:02:09;50802.31;;;-146.02;65.51
57000;BME280;42891;50.006;21.964;2023-05-03T00:06:13;50766.25;;;-146.02;65.54
57000;BME280;42891;50.006;21.964;2023-05-03T00:10:14;50788.28;;;-146.02;65.62
57000;BME280;42891;50.006;21.964;2023-05-03T00:14:18;50802.31;;;-146.02;66.23
57000;BME280;42891;50.006;21.964;2023-05-03T00:18:18;50772.25;;;-146.02;66.38
57000;BME280;42891;50.006;21.964;2023-05-03T00:22:19;50794.31;;;-146.02;66.71
57000;BME280;42891;50.006;21.964;2023-05-03T00:26:19;50806.31;;;-146.02;66.47
57000;BME280;42891;50.006;21.964;2023-05-03T00:30:20;50792.31;;;-146.02;67.18
57000;BME280;42891;50.006;21.964;2023-05-03T00:34:20;50774.28;;;-146.02;67.65
57000;BME280;42891;50.006;21.964;2023-05-03T00:38:21;50782.28;;;-146.02;67.63
57000;BME280;42891;50.006;21.964;2023-05-03T00:42:21;50798.31;;;-146.02;67.34
57000;BME280;42891;50.006;21.964;2023-05-03T00:46:23;50798.31;;;-146.02;66.91
57000;BME280;42891;50.006;21.964;2023-05-03T00:50:23;50780.28;;;-146.02;67.08
57000;BME280;42891;50.006;21.964;2023-05-03T00:54:26;50812.34;;;-146.02;66.95
57000;BME280;42891;50.006;21.964;2023-05-03T00:58:27;50798.31;;;-146.02;67.13
57000;BME280;42891;50.006;21.964;2023-05-03T01:02:27;50804.31;;;-146.02;67.57
57000;BME280;42891;50.006;21.964;2023-05-03T01:10:47;50788.28;;;-146.02;67.88
57000;BME280;42891;50.006;21.964;2023-05-03T01:15:04;50824.34;;;-146.02;68.01
57000;BME280;42891;50.006;21.964;2023-05-03T01:19:18;50820.34;;;-146.02;68.01
57000;BME280;42891;50.006;21.964;2023-05-03T01:27:38;50794.31;;;-146.02;67.88
57000;BME280;42891;50.006;21.964;2023-05-03T01:31:43;50814.34;;;-146.02;67.85
57000;BME280;42891;50.006;21.964;2023-05-03T01:40:07;50774.28;;;-146.02;67.57
57000;BME280;42891;50.006;21.964;2023-05-03T01:44:10;50826.38;;;-146.02;67.54
57000;BME280;42891;50.006;21.964;2023-05-03T01:48:14;50814.34;;;-146.02;67.86
57000;BME280;42891;50.006;21.964;2023-05-03T01:52:14;50816.34;;;-146.02;68.19
57000;BME280;42891;50.006;21.964;2023-05-03T01:56:15;50790.28;;;-146.02;68.09
57000;BME280;42891;50.006;21.964;2023-05-03T02:00:15;50788.28;;;-146.02;68.16
57000;BME280;42891;50.006;21.964;2023-05-03T02:04:15;50796.31;;;-146.02;68.58
57000;BME280;42891;50.006;21.964;2023-05-03T02:08:16;50822.34;;;-146.02;68.70
57000;BME280;42891;50.006;21.964;2023-05-03T02:12:16;50812.34;;;-146.02;68.67
57000;BME280;42891;50.006;21.964;2023-05-03T02:16:17;50810.34;;;-146.02;68.35
57000;BME280;42891;50.006;21.964;2023-05-03T02:20:18;50840.38;;;-146.02;68.45
57000;BME280;42891;50.006;21.964;2023-05-03T02:24:18;50800.31;;;-146.02;68.23
57000;BME280;42891;50.006;21.964;2023-05-03T02:28:19;50794.31;;;-146.02;68.12
57000;BME280;42891;50.006;21.964;2023-05-03T02:32:19;50790.28;;;-146.02;68.33
57000;BME280;42891;50.006;21.964;2023-05-03T02:36:20;50822.34;;;-146.02;68.30
57000;BME280;42891;50.006;21.964;2023-05-03T02:40:21;50822.34;;;-146.02;68.43
57000;BME280;42891;50.006;21.964;2023-05-03T02:44:21;50788.28;;;-146.02;68.48
57000;BME280;42891;50.006;21.964;2023-05-03T02:48:22;50852.41;;;-146.02;68.72
57000;BME280;42891;50.006;21.964;2023-05-03T02:52:22;50832.38;;;-146.02;68.80
57000;BME280;42891;50.006;21.964;2023-05-03T02:56:22;50822.34;;;-146.02;68.84
57000;BME280;42891;50.006;21.964;2023-05-03T03:00:25;50848.41;;;-146.02;69.01
57000;BME280;42891;50.006;21.964;2023-05-03T03:04:26;50806.31;;;-146.02;nan
57000;BME280;42891;50.006;21.964;2023-05-03T03:08:26;50818.34;;;-146.02;68.71
57000;BME280;42891;50.006;21.964;2023-05-03T03:12:26;50816.34;;;-146.02;68.81
57000;BME280;42891;50.006;21.964;2023-05-03T03:16:28;50850.41;;;-146.02;69.08
57000;BME280;42891;50.006;21.964;2023-05-03T03:20:28;50858.41;;;-146.02;69.04
57000;BME280;42891;50.006;21.964;2023-05-03T03:24:28;50850.41;;;-146.02;69.09
57000;BME280;42891;50.006;21.964;2023-05-03T03:28:28;50846.41;;;-146.02;68.82
57000;BME280;42891;50.006;21.964;2023-05-03T03:32:29;50836.38;;;-146.02;68.95
57000;BME280;42891;50.006;21.964;2023-05-03T03:36:29;50804.31;;;-146.02;69.01
57000;BME280;42891;50.006;21.964;2023-05-03T03:40:30;50868.44;;;-146.02;69.23
57000;BME280;42891;50.006;21.964;2023-05-03T03:44:31;50818.34;;;-146.02;69.00
57000;BME280;42891;50.006;21.964;2023-05-03T03:48:31;50866.44;;;-146.02;68.98
57000;BME280;42891;50.006;21.964;2023-05-03T03:52:32;50840.38;;;-146.02;68.99
57000;BME280;42891;50.006;21.964;2023-05-03T03:56:32;50810.34;;;-146.02;68.77
57000;BME280;42891;50.006;21.964;2023-05-03T04:00:33;50846.41;;;-146.02;69.22
57000;BME280;42891;50.006;21.964;2023-05-03T04:04:35;50810.34;;;-146.02;69.05
57000;BME280;42891;50.006;21.964;2023-05-03T04:08:35;50852.41;;;-146.02;68.91
57000;BME280;42891;50.006;21.964;2023-05-03T04:12:35;50824.34;;;-146.02;68.86
57000;BME280;42891;50.006;21.964;2023-05-03T04:16:37;50832.38;;;-146.02;68.87
57000;BME280;42891;50.006;21.964;2023-05-03T04:20:37;50792.31;;;-146.02;68.88
57000;BME280;42891;50.006;21.964;2023-05-03T04:24:37;50874.44;;;-146.02;68.92
57000;BME280;42891;50.006;21.964;2023-05-03T04:28:38;50844.41;;;-146.02;68.89
57000;BME280;42891;50.006;21.964;2023-05-03T04:32:39;50840.38;;;-146.02;69.49
57000;BME280;42891;50.006;21.964;2023-05-03T04:36:40;50794.31;;;-146.02;69.16
57000;BME280;42891;50.006;21.964;2023-05-03T04:40:48;50836.38;;;-146.02;68.65
57000;BME280;42891;50.006;21.964;2023-05-03T04:44:48;50820.34;;;-146.02;68.84
57000;BME280;42891;50.006;21.964;2023-05-03T04:48:49;50848.41;;;-146.02;68.58
57000;BME280;42891;50.006;21.964;2023-05-03T04:52:49;50812.34;;;-146.02;68.75
57000;BME280;42891;50.006;21.964;2023-05-03T04:56:49;50828.38;;;-146.02;68.92
57000;BME280;42891;50.006;21.964;2023-05-03T05:00:50;50834.38;;;-146.02;68.71
57000;BME280;42891;50.006;21.964;2023-05-03T05:04:52;50844.41;;;-146.02;67.98
57000;BME280;42891;50.006;21.964;2023-05-03T05:08:52;50860.44;;;-146.02;67.88
57000;BME280;42891;50.006;21.964;2023-05-03T05:12:52;50822.34;;;-146.02;68.34
57000;BME280;42891;50.006;21.964;2023-05-03T05:16:53;50836.38;;;-146.02;67.82
57000;BME280;42891;50.006;21.964;2023-05-03T05:20:53;50840.38;;;-146.02;67.62
57000;BME280;42891;50.006;21.964;2023-05-03T05:24:53;50862.44;;;-146.02;67.93
57000;BME280;42891;50.006;21.964;2023-05-03T05:28:54;50836.38;;;-146.02;67.85
57000;BME280;42891;50.006;21.964;2023-05-03T05:32:54;50858.41;;;-146.02;67.24
57000;BME280;42891;50.006;21.964;2023-05-03T05:36:55;50834.38;;;-146.02;68.65
57000;BME280;42891;50.006;21.964;2023-05-03T05:40:55;50822.34;;;-146.02;67.94
57000;BME280;42891;50.006;21.964;2023-05-03T05:44:55;50858.41;;;-146.02;68.22
57000;BME280;42891;50.006;21.964;2023-05-03T05:48:56;50816.34;;;-146.02;68.30
57000;BME280;42891;50.006;21.964;2023-05-03T05:52:56;50864.44;;;-146.02;68.50
57000;BME280;42891;50.006;21.964;2023-05-03T05:56:57;50852.41;;;-146.02;68.31
57000;BME280;42891;50.006;21.964;2023-05-03T06:00:59;50812.34;;;-146.02;68.38
57000;BME280;42891;50.006;21.964;2023-05-03T06:05:00;50874.44;;;-146.02;68.66
57000;BME280;42891;50.006;21.964;2023-05-03T06:09:01;50862.44;;;-146.02;68.50
57000;BME280;42891;50.006;21.964;2023-05-03T06:13:02;50814.34;;;-146.02;68.47
57000;BME280;42891;50.006;21.964;2023-05-03T06:17:02;50858.41;;;-146.02;69.30
57000;BME280;42891;50.006;21.964;2023-05-03T06:21:03;50834.38;;;-146.02;68.78
57000;BME280;42891;50.006;21.964;2023-05-03T06:25:04;50804.31;;;-146.02;68.86
57000;BME280;42891;50.006;21.964;2023-05-03T06:29:06;50822.34;;;-146.02;68.68
57000;BME280;42891;50.006;21.964;2023-05-03T06:33:06;50812.34;;;-146.02;69.28
57000;BME280;42891;50.006;21.964;2023-05-03T06:37:07;50854.41;;;-146.02;69.45
57000;BME280;42891;50.006;21.964;2023-05-03T06:41:07;50808.34;;;-146.02;69.99
57000;BME280;42891;50.006;21.964;2023-05-03T06:45:07;50868.44;;;-146.02;68.83
57000;BME280;42891;50.006;21.964;2023-05-03T06:49:08;50810.34;;;-146.02;68.92
57000;BME280;42891;50.006;21.964;2023-05-03T06:53:08;50836.38;;;-146.02;69.59
57000;BME280;42891;50.006;21.964;2023-05-03T06:57:09;50844.41;;;-146.02;68.92
57000;BME280;42891;50.006;21.964;2023-05-03T07:01:09;50830.38;;;-146.02;68.50
57000;BME280;42891;50.006;21.964;2023-05-03T07:05:10;50814.34;;;-146.02;68.56
57000;BME280;42891;50.006;21.964;2023-05-03T07:09:10;50818.34;;;-146.02;68.34
57000;BME280;42891;50.006;21.964;2023-05-03T07:13:10;50840.38;;;-146.02;68.34
57000;BME280;42891;50.006;21.964;2023-05-03T07:17:11;50820.34;;;-146.02;68.72
57000;BME280;42891;50.006;21.964;2023-05-03T07:21:12;50840.38;;;-146.02;69.22
57000;BME280;42891;50.006;21.964;2023-05-03T07:25:12;50854.41;;;-146.02;68.47
57000;BME280;42891;50.006;21.964;2023-05-03T07:29:15;50852.41;;;-146.02;68.57
57000;BME280;42891;50.006;21.964;2023-05-03T07:33:15;50860.44;;;-146.02;68.34
57000;BME280;42891;50.006;21.964;2023-05-03T07:37:16;50848.41;;;-146.02;68.15
57000;BME280;42891;50.006;21.964;2023-05-03T07:41:16;50854.41;;;-146.02;68.22
57000;BME280;42891;50.006;21.964;2023-05-03T07:45:17;50790.28;;;-146.02;67.96
57000;BME280;42891;50.006;21.964;2023-05-03T07:49:18;50828.38;;;-146.02;67.92
57000;BME280;42891;50.006;21.964;2023-05-03T07:53:18;50820.34;;;-146.02;67.93
57000;BME280;42891;50.006;21.964;2023-05-03T07:57:19;50898.50;;;-146.02;68.29
57000;BME280;42891;50.006;21.964;2023-05-03T08:01:22;50828.38;;;-146.02;67.93
57000;BME280;42891;50.006;21.964;2023-05-03T08:05:23;50868.44;;;-146.02;67.58
57000;BME280;42891;50.006;21.964;2023-05-03T08:09:23;50844.41;;;-146.02;67.55
57000;BME280;42891;50.006;21.964;2023-05-03T08:13:24;50818.34;;;-146.02;67.88
57000;BME280;42891;50.006;21.964;2023-05-03T08:17:24;50808.34;;;-146.02;68.15
57000;BME280;42891;50.006;21.964;2023-05-03T08:21:25;50830.38;;;-146.02;67.43
57000;BME280;42891;50.006;21.964;2023-05-03T08:25:27;50834.38;;;-146.02;67.93
57000;BME280;42891;50.006;21.964;2023-05-03T08:29:29;50836.38;;;-146.02;68.38
57000;BME280;42891;50.006;21.964;2023-05-03T08:33:29;50844.41;;;-146.02;68.48
57000;BME280;42891;50.006;21.964;2023-05-03T08:37:30;50890.47;;;-146.02;67.96
57000;BME280;42891;50.006;21.964;2023-05-03T08:41:30;50856.41;;;-146.02;68.70
57000;BME280;42891;50.006;21.964;2023-05-03T08:45:31;50844.41;;;-146.02;68.70
57000;BME280;42891;50.006;21.964;2023-05-03T08:49:32;50834.38;;;-146.02;68.82
57000;BME280;42891;50.006;21.964;2023-05-03T08:53:37;50846.41;;;-146.02;68.79
57000;BME280;42891;50.006;21.964;2023-05-03T08:57:37;50850.41;;;-146.02;68.94
57000;BME280;42891;50.006;21.964;2023-05-03T09:01:39;50858.41;;;-146.02;69.44
57000;BME280;42891;50.006;21.964;2023-05-03T09:05:40;50860.44;;;-146.02;69.79
57000;BME280;42891;50.006;21.964;2023-05-03T09:09:43;50830.38;;;-146.02;70.42
57000;BME280;42891;50.006;21.964;2023-05-03T09:13:43;50870.44;;;-146.02;71.44
57000;BME280;42891;50.006;21.964;2023-05-03T09:17:43;50834.38;;;-146.02;72.08
57000;BME280;42891;50.006;21.964;2023-05-03T09:21:45;50884.47;;;-146.02;72.04
57000;BME280;42891;50.006;21.964;2023-05-03T09:25:49;50850.41;;;-146.02;71.43
57000;BME280;42891;50.006;21.964;2023-05-03T09:29:53;50840.38;;;-146.02;71.25
57000;BME280;42891;50.006;21.964;2023-05-03T09:33:54;50856.41;;;-146.02;72.19
57000;BME280;42891;50.006;21.964;2023-05-03T09:37:55;50850.41;;;-146.02;72.35
57000;BME280;42891;50.006;21.964;2023-05-03T09:41:55;50830.38;;;-146.02;71.88
57000;BME280;42891;50.006;21.964;2023-05-03T09:46:10;50840.38;;;-146.02;72.31
57000;BME280;42891;50.006;21.964;2023-05-03T09:50:11;50886.47;;;-146.02;70.76
57000;BME280;42891;50.006;21.964;2023-05-03T09:54:14;50828.38;;;-146.02;69.07
57000;BME280;42891;50.006;21.964;2023-05-03T09:58:17;50860.44;;;-146.02;69.52
57000;BME280;42891;50.006;21.964;2023-05-03T10:02:17;50888.47;;;-146.02;67.64
57000;BME280;42891;50.006;21.964;2023-05-03T10:06:41;50834.38;;;-146.02;68.12
57000;BME280;42891;50.006;21.964;2023-05-03T10:10:43;50856.41;;;-146.02;67.88
57000;BME280;42891;50.006;21.964;2023-05-03T10:14:46;50862.44;;;-146.02;67.47
57000;BME280;42891;50.006;21.964;2023-05-03T10:18:52;50854.41;;;-146.02;66.39
57000;BME280;42891;50.006;21.964;2023-05-03T10:23:06;50854.41;;;-146.02;65.51
57000;BME280;42891;50.006;21.964;2023-05-03T10:27:06;50832.38;;;-146.02;64.96
57000;BME280;42891;50.006;21.964;2023-05-03T10:31:45;50840.38;;;-146.02;66.19
57000;BME280;42891;50.006;21.964;2023-05-03T10:35:52;50828.38;;;-146.02;65.26
57000;BME280;42891;50.006;21.964;2023-05-03T10:39:53;50846.41;;;-146.02;64.49
57000;BME280;42891;50.006;21.964;2023-05-03T10:43:54;50828.38;;;-146.02;64.51
57000;BME280;42891;50.006;21.964;2023-05-03T10:56:55;50898.50;;;-146.02;64.45
57000;BME280;42891;50.006;21.964;2023-05-03T11:00:56;50846.41;;;-146.02;64.08
57000;BME280;42891;50.006;21.964;2023-05-03T11:04:59;50828.38;;;-146.02;60.86
57000;BME280;42891;50.006;21.964;2023-05-03T11:09:03;50888.47;;;-146.02;59.00
57000;BME280;42891;50.006;21.964;2023-05-03T11:13:05;50828.38;;;-146.02;59.52
57000;BME280;42891;50.006;21.964;2023-05-03T11:17:05;50864.44;;;-146.02;60.56
57000;BME280;42891;50.006;21.964;2023-05-03T11:21:06;50862.44;;;-146.02;58.63
57000;BME280;42891;50.006;21.964;2023-05-03T11:25:06;50896.50;;;-146.02;60.66
57000;BME280;42891;50.006;21.964;2023-05-03T11:29:10;50850.41;;;-146.02;60.68
57000;BME280;42891;50.006;21.964;2023-05-03T11:33:12;50886.47;;;-146.02;60.30
57000;BME280;42891;50.006;21.964;2023-05-03T11:37:12;50852.41;;;-146.02;60.17
57000;BME280;42891;50.006;21.964;2023-05-03T11:41:15;50846.41;;;-146.02;61.48
57000;BME280;42891;50.006;21.964;2023-05-03T11:45:17;50854.41;;;-146.02;62.42
57000;BME280;42891;50.006;21.964;2023-05-03T11:49:18;50822.34;;;-146.02;62.26
57000;BME280;42891;50.006;21.964;2023-05-03T11:53:18;50826.38;;;-146.02;61.48
57000;BME280;42891;50.006;21.964;2023-05-03T11:57:19;50842.38;;;-146.02;63.05
57000;BME280;42891;50.006;21.964;2023-05-03T12:01:22;50824.34;;;-146.02;63.48
57000;BME280;42891;50.006;21.964;2023-05-03T12:05:23;50828.38;;;-146.02;61.59
57000;BME280;42891;50.006;21.964;2023-05-03T12:09:24;50832.38;;;-146.02;63.22
57000;BME280;42891;50.006;21.964;2023-05-03T12:13:29;50876.44;;;-146.02;63.14
57000;BME280;42891;50.006;21.964;2023-05-03T12:17:35;50858.41;;;-146.02;63.40
57000;BME280;42891;50.006;21.964;2023-05-03T12:21:46;50866.44;;;-146.02;63.25
57000;BME280;42891;50.006;21.964;2023-05-03T12:25:47;50854.41;;;-146.02;63.22
57000;BME280;42891;50.006;21.964;2023-05-03T12:29:47;50854.41;;;-146.02;63.80
57000;BME280;42891;50.006;21.964;2023-05-03T12:33:48;50866.44;;;-146.02;64.09
57000;BME280;42891;50.006;21.964;2023-05-03T12:37:49;50900.50;;;-146.02;65.49
57000;BME280;42891;50.006;21.964;2023-05-03T12:41:50;50868.44;;;-146.02;65.36
57000;BME280;42891;50.006;21.964;2023-05-03T12:45:50;50828.38;;;-146.02;64.90
57000;BME280;42891;50.006;21.964;2023-05-03T12:49:51;50856.41;;;-146.02;65.43
57000;BME280;42891;50.006;21.964;2023-05-03T12:53:51;50882.47;;;-146.02;65.59
57000;BME280;42891;50.006;21.964;2023-05-03T12:57:51;50872.44;;;-146.02;64.44
57000;BME280;42891;50.006;21.964;2023-05-03T13:01:52;50898.50;;;-146.02;64.47
57000;BME280;42891;50.006;21.964;2023-05-03T13:05:52;50862.44;;;-146.02;65.95
57000;BME280;42891;50.006;21.964;2023-05-03T13:09:53;50856.41;;;-146.02;65.36
57000;BME280;42891;50.006;21.964;2023-05-03T13:13:54;50894.50;;;-146.02;65.98
57000;BME280;42891;50.006;21.964;2023-05-03T13:17:54;50844.41;;;-146.02;66.90
57000;BME280;42891;50.006;21.964;2023-05-03T13:21:55;50896.50;;;-146.02;66.00
57000;BME280;42891;50.006;21.964;2023-05-03T13:25:55;50860.44;;;-146.02;66.14
57000;BME280;42891;50.006;21.964;2023-05-03T13:29:57;50844.41;;;-146.02;67.36
57000;BME280;42891;50.006;21.964;2023-05-03T13:33:59;50890.47;;;-146.02;67.21
57000;BME280;42891;50.006;21.964;2023-05-03T13:37:59;50900.50;;;-146.02;67.08
57000;BME280;42891;50.006;21.964;2023-05-03T13:42:00;50844.41;;;-146.02;68.16
57000;BME280;42891;50.006;21.964;2023-05-03T13:46:00;50874.44;;;-146.02;68.12
57000;BME280;42891;50.006;21.964;2023-05-03T13:50:01;50846.41;;;-146.02;69.06
57000;BME280;42891;50.006;21.964;2023-05-03T13:54:03;50864.44;;;-146.02;69.21
57000;BME280;42891;50.006;21.964;2023-05-03T13:58:04;50840.38;;;-146.02;68.46
57000;BME280;42891;50.006;21.964;2023-05-03T14:02:05;50890.47;;;-146.02;68.36
57000;BME280;42891;50.006;21.964;2023-05-03T14:06:05;50916.53;;;-146.02;67.70
57000;BME280;42891;50.006;21.964;2023-05-03T14:10:08;50892.47;;;-146.02;67.39
57000;BME280;42891;50.006;21.964;2023-05-03T14:14:08;50892.47;;;-146.02;67.61
57000;BME280;42891;50.006;21.964;2023-05-03T14:18:09;50878.47;;;-146.02;68.30
57000;BME280;42891;50.006;21.964;2023-05-03T14:22:09;50876.44;;;-146.02;68.16
57000;BME280;42891;50.006;21.964;2023-05-03T14:26:09;50888.47;;;-146.02;68.74
57000;BME280;42891;50.006;21.964;2023-05-03T14:30:10;50894.50;;;-146.02;69.25
57000;BME280;42891;50.006;21.964;2023-05-03T14:34:10;50902.50;;;-146.02;70.13
57000;BME280;42891;50.006;21.964;2023-05-03T14:38:11;50860.44;;;-146.02;69.87
57000;BME280;42891;50.006;21.964;2023-05-03T14:42:11;50868.44;;;-146.02;68.92
57000;BME280;42891;50.006;21.964;2023-05-03T14:46:12;50896.50;;;-146.02;68.03
57000;BME280;42891;50.006;21.964;2023-05-03T14:50:12;50886.47;;;-146.02;68.31
57000;BME280;42891;50.006;21.964;2023-05-03T14:54:12;50860.44;;;-146.02;68.85
57000;BME280;42891;50.006;21.964;2023-05-03T14:58:13;50860.44;;;-146.02;69.35
57000;BME280;42891;50.006;21.964;2023-05-03T15:02:13;50884.47;;;-146.02;69.66
57000;BME280;42891;50.006;21.964;2023-05-03T15:06:13;50878.47;;;-146.02;69.91
57000;BME280;42891;50.006;21.964;2023-05-03T15:10:15;50862.44;;;-146.02;68.95
57000;BME280;42891;50.006;21.964;2023-05-03T15:14:15;50898.50;;;-146.02;68.18
57000;BME280;42891;50.006;21.964;2023-05-03T15:18:16;50884.47;;;-146.02;68.76
57000;BME280;42891;50.006;21.964;2023-05-03T15:22:19;50878.47;;;-146.02;68.23
57000;BME280;42891;50.006;21.964;2023-05-03T15:26:20;50878.47;;;-146.02;68.53
57000;BME280;42891;50.006;21.964;2023-05-03T15:30:23;50904.50;;;-146.02;69.19
57000;BME280;42891;50.006;21.964;2023-05-03T15:34:23;50884.47;;;-146.02;68.95
57000;BME280;42891;50.006;21.964;2023-05-03T15:38:24;50888.47;;;-146.02;68.93
57000;BME280;42891;50.006;21.964;2023-05-03T15:42:24;50894.50;;;-146.02;68.37
57000;BME280;42891;50.006;21.964;2023-05-03T15:46:25;50896.50;;;-146.02;69.03
57000;BME280;42891;50.006;21.964;2023-05-03T15:50:25;50884.47;;;-146.02;68.92
57000;BME280;42891;50.006;21.964;2023-05-03T15:54:26;50902.50;;;-146.02;69.08
57000;BME280;42891;50.006;21.964;2023-05-03T15:58:26;50874.44;;;-146.02;69.73
57000;BME280;42891;50.006;21.964;2023-05-03T16:02:30;50922.53;;;-146.02;69.55
57000;BME280;42891;50.006;21.964;2023-05-03T16:06:31;50888.47;;;-146.02;70.09
57000;BME280;42891;50.006;21.964;2023-05-03T16:10:32;50896.50;;;-146.02;70.25
57000;BME280;42891;50.006;21.964;2023-05-03T16:14:32;50910.53;;;-146.02;70.44
57000;BME280;42891;50.006;21.964;2023-05-03T16:18:32;50876.44;;;-146.02;70.54
57000;BME280;42891;50.006;21.964;2023-05-03T16:22:33;50864.44;;;-146.02;70.83
57000;BME280;42891;50.006;21.964;2023-05-03T16:26:34;50876.44;;;-146.02;70.87
57000;BME280;42891;50.006;21.964;2023-05-03T16:30:34;50870.44;;;-146.02;70.73
57000;BME280;42891;50.006;21.964;2023-05-03T16:34:35;50902.50;;;-146.02;70.04
57000;BME280;42891;50.006;21.964;2023-05-03T16:38:36;50916.53;;;-146.02;70.50
57000;BME280;42891;50.006;21.964;2023-05-03T16:42:40;50896.50;;;-146.02;70.73
57000;BME280;42891;50.006;21.964;2023-05-03T16:46:41;50854.41;;;-146.02;71.41
57000;BME280;42891;50.006;21.964;2023-05-03T16:50:42;50904.50;;;-146.02;71.85
57000;BME280;42891;50.006;21.964;2023-05-03T16:54:43;50914.53;;;-146.02;71.11
57000;BME280;42891;50.006;21.964;2023-05-03T16:58:43;50906.50;;;-146.02;71.57
57000;BME280;42891;50.006;21.964;2023-05-03T17:02:43;50892.47;;;-146.02;70.97
57000;BME280;42891;50.006;21.964;2023-05-03T17:06:44;50864.44;;;-146.02;70.56
57000;BME280;42891;50.006;21.964;2023-05-03T17:10:46;50922.53;;;-146.02;70.88
57000;BME280;42891;50.006;21.964;2023-05-03T17:14:46;50916.53;;;-146.02;70.40
57000;BME280;42891;50.006;21.964;2023-05-03T17:18:47;50908.50;;;-146.02;70.77
57000;BME280;42891;50.006;21.964;2023-05-03T17:22:48;50948.59;;;-146.02;69.97
57000;BME280;42891;50.006;21.964;2023-05-03T17:26:48;50910.53;;;-146.02;69.58
57000;BME280;42891;50.006;21.964;2023-05-03T17:30:49;50892.47;;;-146.02;69.36
57000;BME280;42891;50.006;21.964;2023-05-03T17:34:49;50866.44;;;-146.02;68.64
57000;BME280;42891;50.006;21.964;2023-05-03T17:38:50;50892.47;;;-146.02;68.26
57000;BME280;42891;50.006;21.964;2023-05-03T17:42:50;50940.56;;;-146.02;68.13
57000;BME280;42891;50.006;21.964;2023-05-03T17:46:50;50894.50;;;-146.02;67.84
57000;BME280;42891;50.006;21.964;2023-05-03T17:50:57;50884.47;;;-146.02;67.90
57000;BME280;42891;50.006;21.964;2023-05-03T17:54:58;50928.56;;;-146.02;68.00
57000;BME280;42891;50.006;21.964;2023-05-03T17:58:58;50896.50;;;-146.02;68.47
57000;BME280;42891;50.006;21.964;2023-05-03T18:02:58;50898.50;;;-146.02;68.60
57000;BME280;42891;50.006;21.964;2023-05-03T18:06:59;50858.41;;;-146.02;69.33
57000;BME280;42891;50.006;21.964;2023-05-03T18:10:59;50944.59;;;-146.02;69.44
57000;BME280;42891;50.006;21.964;2023-05-03T18:15:01;50930.56;;;-146.02;69.85
57000;BME280;42891;50.006;21.964;2023-05-03T18:19:01;50914.53;;;-146.02;70.04
57000;BME280;42891;50.006;21.964;2023-05-03T18:23:02;50920.53;;;-146.02;70.48
57000;BME280;42891;50.006;21.964;2023-05-03T18:27:03;50884.47;;;-146.02;70.78
57000;BME280;42891;50.006;21.964;2023-05-03T18:31:03;50938.56;;;-146.02;70.82
57000;BME280;42891;50.006;21.964;2023-05-03T18:35:04;50910.53;;;-146.02;70.79
57000;BME280;42891;50.006;21.964;2023-05-03T18:39:05;50922.53;;;-146.02;70.92
57000;BME280;42891;50.006;21.964;2023-05-03T18:43:06;50922.53;;;-146.02;71.19
57000;BME280;42891;50.006;21.964;2023-05-03T18:47:07;50900.50;;;-146.02;71.17
57000;BME280;42891;50.006;21.964;2023-05-03T18:51:09;50952.59;;;-146.02;70.83
57000;BME280;42891;50.006;21.964;2023-05-03T18:55:09;50916.53;;;-146.02;70.71
57000;BME280;42891;50.006;21.964;2023-05-03T18:59:10;50924.53;;;-146.02;70.94
57000;BME280;42891;50.006;21.964;2023-05-03T19:03:10;50930.56;;;-146.02;71.25
57000;BME280;42891;50.006;21.964;2023-05-03T19:07:10;50934.56;;;-146.02;71.44
57000;BME280;42891;50.006;21.964;2023-05-03T19:11:12;50904.50;;;-146.02;71.05
57000;BME280;42891;50.006;21.964;2023-05-03T19:15:13;50892.47;;;-146.02;71.10
57000;BME280;42891;50.006;21.964;2023-05-03T19:19:13;50940.56;;;-146.02;70.90
57000;BME280;42891;50.006;21.964;2023-05-03T19:23:14;50894.50;;;-146.02;71.05
57000;BME280;42891;50.006;21.964;2023-05-03T19:27:15;50914.53;;;-146.02;70.97
57000;BME280;42891;50.006;21.964;2023-05-03T19:31:16;50940.56;;;-146.02;70.92
57000;BME280;42891;50.006;21.964;2023-05-03T19:35:16;50898.50;;;-146.02;70.26
57000;BME280;42891;50.006;21.964;2023-05-03T19:39:17;50918.53;;;-146.02;70.48
57000;BME280;42891;50.006;21.964;2023-05-03T19:43:18;50926.53;;;-146.02;70.67
57000;BME280;42891;50.006;21.964;2023-05-03T19:47:18;50934.56;;;-146.02;70.78
57000;BME280;42891;50.006;21.964;2023-05-03T19:51:19;50916.53;;;-146.02;70.64
57000;BME280;42891;50.006;21.964;2023-05-03T19:55:19;50934.56;;;-146.02;70.80
57000;BME280;42891;50.006;21.964;2023-05-03T19:59:19;50942.56;;;-146.02;70.54
57000;BME280;42891;50.006;21.964;2023-05-03T20:03:22;50932.56;;;-146.02;70.80
57000;BME280;42891;50.006;21.964;2023-05-03T20:07:22;50914.53;;;-146.02;70.90
57000;BME280;42891;50.006;21.964;2023-05-03T20:11:23;50908.50;;;-146.02;71.11
57000;BME280;42891;50.006;21.964;2023-05-03T20:15:23;50898.50;;;-146.02;71.75
57000;BME280;42891;50.006;21.964;2023-05-03T20:19:24;50904.50;;;-146.02;70.97
57000;BME280;42891;50.006;21.964;2023-05-03T20:23:24;50930.56;;;-146.02;70.86
57000;BME280;42891;50.006;21.964;2023-05-03T20:27:25;50932.56;;;-146.02;71.23
57000;BME280;42891;50.006;21.964;2023-05-03T20:31:26;50888.47;;;-146.02;70.86
57000;BME280;42891;50.006;21.964;2023-05-03T20:35:27;50944.59;;;-146.02;70.87
57000;BME280;42891;50.006;21.964;2023-05-03T20:39:27;50946.59;;;-146.02;71.08
57000;BME280;42891;50.006;21.964;2023-05-03T20:43:27;50938.56;;;-146.02;71.35
57000;BME280;42891;50.006;21.964;2023-05-03T20:47:28;50914.53;;;-146.02;71.61
57000;BME280;42891;50.006;21.964;2023-05-03T20:51:28;50926.53;;;-146.02;71.04